createdAt,value
2018-03-10T00:01:49.519Z,9.72
2018-03-10T00:04:16.898Z,9.70
2018-03-10T00:06:44.299Z,9.70
2018-03-10T00:09:11.692Z,9.68
2018-03-10T00:11:39.082Z,9.72
2018-03-10T00:14:06.489Z,9.77
2018-03-10T00:16:33.893Z,9.85
2018-03-10T00:19:01.279Z,9.85
2018-03-10T00:21:28.681Z,9.86
2018-03-10T00:23:56.069Z,9.86
2018-03-10T00:26:23.461Z,9.82
2018-03-10T00:28:50.861Z,9.83
2018-03-10T00:31:18.245Z,9.87
2018-03-10T00:33:45.649Z,9.78
2018-03-10T00:36:13.062Z,9.85
2018-03-10T00:38:40.453Z,9.85
2018-03-10T00:41:07.861Z,9.91
2018-03-10T00:43:35.265Z,9.85
2018-03-10T00:46:02.649Z,9.79
2018-03-10T00:48:30.031Z,9.80
2018-03-10T00:50:57.429Z,9.80
2018-03-10T00:53:24.817Z,9.83
2018-03-10T00:55:52.206Z,9.82
2018-03-10T00:58:19.618Z,9.90
2018-03-10T01:00:47.077Z,9.90
2018-03-10T01:03:14.463Z,9.95
2018-03-10T01:05:41.860Z,9.96
2018-03-10T01:08:09.241Z,9.99
2018-03-10T01:10:36.629Z,9.94
2018-03-10T01:13:04.031Z,9.94
2018-03-10T01:15:31.414Z,9.89
2018-03-10T01:17:58.814Z,10.00
2018-03-10T01:20:26.213Z,9.93
2018-03-10T01:22:53.602Z,9.96
2018-03-10T01:25:20.999Z,10.00
2018-03-10T01:27:48.409Z,9.95
2018-03-10T01:30:15.798Z,9.89
2018-03-10T01:32:43.183Z,9.87
2018-03-10T01:35:10.578Z,9.95
2018-03-10T01:37:37.961Z,9.98
2018-03-10T01:40:05.347Z,9.97
2018-03-10T01:42:32.745Z,9.99
2018-03-10T01:45:00.138Z,9.91
2018-03-10T01:47:27.536Z,10.00
2018-03-10T01:49:54.938Z,9.99
2018-03-10T01:52:22.335Z,9.98
2018-03-10T01:54:49.714Z,9.98
2018-03-10T01:57:17.118Z,10.04
2018-03-10T01:59:44.501Z,10.11
2018-03-10T02:02:11.898Z,10.02
2018-03-10T02:04:39.310Z,9.98
2018-03-10T02:07:06.706Z,9.99
2018-03-10T02:09:34.103Z,10.00
2018-03-10T02:12:01.502Z,9.98
2018-03-10T02:14:28.890Z,9.95
2018-03-10T02:16:56.296Z,10.00
2018-03-10T02:19:23.722Z,10.01
2018-03-10T02:21:51.110Z,9.92
2018-03-10T02:24:18.500Z,10.02
2018-03-10T02:26:45.908Z,9.98
2018-03-10T02:29:13.300Z,10.05
2018-03-10T02:31:40.703Z,10.06
2018-03-10T02:34:08.102Z,10.10
2018-03-10T02:36:35.486Z,10.22
2018-03-10T02:39:02.878Z,10.16
2018-03-10T02:41:30.286Z,10.21
2018-03-10T02:43:57.673Z,10.14
2018-03-10T02:46:25.057Z,10.21
2018-03-10T02:48:52.457Z,10.16
2018-03-10T02:51:19.844Z,10.17
2018-03-10T02:53:47.241Z,10.23
2018-03-10T02:56:14.640Z,10.20
2018-03-10T02:58:42.034Z,10.14
2018-03-10T03:01:09.421Z,10.15
2018-03-10T03:03:36.835Z,10.15
2018-03-10T03:06:04.234Z,10.25
2018-03-10T03:08:31.626Z,10.19
2018-03-10T03:10:59.018Z,10.22
2018-03-10T03:13:26.419Z,10.19
2018-03-10T03:15:53.810Z,10.10
2018-03-10T03:18:21.251Z,10.13
2018-03-10T03:20:48.604Z,10.12
2018-03-10T03:23:15.995Z,10.18
2018-03-10T03:25:43.386Z,10.23
2018-03-10T03:28:10.795Z,10.13
2018-03-10T03:30:38.194Z,10.17
2018-03-10T03:33:05.594Z,10.16
2018-03-10T03:35:32.986Z,10.27
2018-03-10T03:38:00.386Z,10.32
2018-03-10T03:40:27.782Z,10.30
2018-03-10T03:42:55.169Z,10.25
2018-03-10T03:45:22.563Z,10.22
2018-03-10T03:47:49.950Z,10.31
2018-03-10T03:50:17.360Z,10.27
2018-03-10T03:52:44.741Z,10.24
2018-03-10T03:55:12.155Z,10.28
2018-03-10T03:57:39.545Z,10.28
2018-03-10T04:00:06.941Z,10.28
2018-03-10T04:02:34.333Z,10.37
2018-03-10T04:05:01.870Z,10.45
2018-03-10T04:07:29.270Z,10.43
2018-03-10T04:09:56.787Z,10.36
2018-03-10T04:12:24.186Z,10.34
2018-03-10T04:14:51.580Z,10.38
2018-03-10T04:17:18.981Z,10.45
2018-03-10T04:19:46.374Z,10.44
2018-03-10T04:22:13.778Z,10.49
2018-03-10T04:24:41.174Z,10.41
2018-03-10T04:27:08.569Z,10.40
2018-03-10T04:29:35.958Z,10.48
2018-03-10T04:32:03.349Z,10.52
2018-03-10T04:34:30.746Z,10.56
2018-03-10T04:36:58.142Z,10.55
2018-03-10T04:39:25.535Z,10.53
2018-03-10T04:41:52.933Z,10.55
2018-03-10T04:44:20.345Z,10.66
2018-03-10T04:46:47.740Z,10.68
2018-03-10T04:49:15.124Z,10.67
2018-03-10T04:51:42.519Z,10.65
2018-03-10T04:54:09.909Z,10.69
2018-03-10T04:56:37.304Z,10.73
2018-03-10T04:59:04.706Z,10.60
2018-03-10T05:01:32.094Z,10.62
2018-03-10T05:03:59.494Z,10.66
2018-03-10T05:06:26.881Z,10.63
2018-03-10T05:08:54.286Z,10.66
2018-03-10T05:11:21.679Z,10.67
2018-03-10T05:13:49.070Z,10.67
2018-03-10T05:16:16.473Z,10.63
2018-03-10T05:18:43.869Z,10.64
2018-03-10T05:21:11.270Z,10.61
2018-03-10T05:23:38.668Z,10.64
2018-03-10T05:26:06.062Z,10.67
2018-03-10T05:28:33.480Z,10.68
2018-03-10T05:31:00.878Z,10.76
2018-03-10T05:33:28.258Z,10.86
2018-03-10T05:35:55.670Z,10.92
2018-03-10T05:38:23.066Z,10.89
2018-03-10T05:40:50.465Z,10.96
2018-03-10T05:43:17.855Z,10.88
2018-03-10T05:45:45.246Z,10.90
2018-03-10T05:48:12.642Z,10.96
2018-03-10T05:50:40.046Z,10.95
2018-03-10T05:53:07.429Z,10.96
2018-03-10T05:55:34.837Z,10.98
2018-03-10T05:58:02.244Z,11.02
2018-03-10T06:00:29.642Z,11.11
2018-03-10T06:02:57.059Z,11.06
2018-03-10T06:05:24.442Z,11.06
2018-03-10T06:07:51.825Z,11.06
2018-03-10T06:10:19.217Z,11.09
2018-03-10T06:12:46.625Z,11.13
2018-03-10T06:15:14.025Z,11.17
2018-03-10T06:17:41.413Z,11.08
2018-03-10T06:20:08.794Z,11.02
2018-03-10T06:22:36.199Z,11.06
2018-03-10T06:25:03.581Z,11.09
2018-03-10T06:27:30.983Z,11.15
2018-03-10T06:29:58.416Z,11.27
2018-03-10T06:32:25.764Z,11.26
2018-03-10T06:34:53.150Z,11.32
2018-03-10T06:37:20.561Z,11.34
2018-03-10T06:39:47.946Z,11.40
2018-03-10T06:42:15.407Z,11.41
2018-03-10T06:44:42.741Z,11.41
2018-03-10T06:47:10.130Z,11.50
2018-03-10T06:49:37.548Z,11.49
2018-03-10T06:52:04.949Z,11.47
2018-03-10T06:54:32.341Z,11.48
2018-03-10T06:56:59.738Z,11.45
2018-03-10T06:59:27.142Z,11.47
2018-03-10T07:01:54.529Z,11.46
2018-03-10T07:04:21.950Z,11.46
2018-03-10T07:06:49.342Z,11.55
2018-03-10T07:09:16.750Z,11.48
2018-03-10T07:11:44.137Z,11.53
2018-03-10T07:14:11.542Z,11.56
2018-03-10T07:16:38.929Z,11.58
2018-03-10T07:19:06.321Z,11.59
2018-03-10T07:21:33.713Z,11.58
2018-03-10T07:24:01.125Z,11.69
2018-03-10T07:26:28.527Z,11.71
2018-03-10T07:28:55.913Z,11.73
2018-03-10T07:31:23.309Z,11.79
2018-03-10T07:33:50.802Z,11.88
2018-03-10T07:36:18.245Z,11.88
2018-03-10T07:38:45.646Z,11.94
2018-03-10T07:41:13.034Z,11.98
2018-03-10T07:43:40.429Z,12.03
2018-03-10T07:46:07.831Z,12.13
2018-03-10T07:48:35.223Z,12.11
2018-03-10T07:51:02.613Z,12.08
2018-03-10T07:53:30.002Z,11.97
2018-03-10T07:55:57.406Z,12.00
2018-03-10T07:58:24.793Z,12.06
2018-03-10T08:00:52.275Z,12.11
2018-03-10T08:03:19.614Z,12.16
2018-03-10T08:05:47.026Z,12.22
2018-03-10T08:08:14.413Z,12.35
2018-03-10T08:10:41.802Z,12.48
2018-03-10T08:13:09.197Z,12.59
2018-03-10T08:15:36.585Z,12.62
2018-03-10T08:18:03.983Z,12.74
2018-03-10T08:20:31.370Z,12.88
2018-03-10T08:22:58.766Z,12.98
2018-03-10T08:25:26.157Z,13.08
2018-03-10T08:27:53.552Z,13.19
2018-03-10T08:30:20.949Z,13.33
2018-03-10T08:32:48.381Z,13.20
2018-03-10T08:35:15.746Z,13.13
2018-03-10T08:37:43.141Z,13.16
2018-03-10T08:40:10.529Z,13.24
2018-03-10T08:42:37.925Z,13.32
2018-03-10T08:45:05.317Z,13.36
2018-03-10T08:47:32.741Z,13.46
2018-03-10T08:50:00.136Z,13.59
2018-03-10T08:52:27.533Z,13.65
2018-03-10T08:54:54.929Z,13.84
2018-03-10T08:57:22.317Z,13.88
2018-03-10T08:59:49.723Z,14.08
2018-03-10T09:02:17.109Z,14.12
2018-03-10T09:04:44.502Z,14.15
2018-03-10T09:07:11.890Z,14.16
2018-03-10T09:09:39.286Z,14.00
2018-03-10T09:12:06.680Z,14.19
2018-03-10T09:14:34.074Z,14.35
2018-03-10T09:17:01.476Z,14.50
2018-03-10T09:19:28.857Z,14.62
2018-03-10T09:21:56.254Z,14.64
2018-03-10T09:24:23.641Z,14.68
2018-03-10T09:26:51.033Z,14.81
2018-03-10T09:29:18.448Z,14.81
2018-03-10T09:31:45.833Z,14.70
2018-03-10T09:34:13.230Z,14.76
2018-03-10T09:36:40.622Z,14.64
2018-03-10T09:39:08.028Z,14.71
2018-03-10T09:41:35.418Z,14.76
2018-03-10T09:44:02.817Z,14.75
2018-03-10T09:46:30.402Z,14.73
2018-03-10T09:48:57.618Z,14.78
2018-03-10T09:51:25.017Z,14.83
2018-03-10T09:53:52.421Z,14.86
2018-03-10T09:56:19.826Z,15.08
2018-03-10T09:58:47.213Z,15.18
2018-03-10T10:01:14.617Z,15.19
2018-03-10T10:03:42.006Z,15.30
2018-03-10T10:06:09.441Z,15.39
2018-03-10T10:08:36.833Z,15.44
2018-03-10T10:11:04.229Z,15.53
2018-03-10T10:13:31.614Z,15.67
2018-03-10T10:15:58.997Z,15.72
2018-03-10T10:18:26.397Z,15.55
2018-03-10T10:20:53.785Z,15.44
2018-03-10T10:23:21.185Z,15.43
2018-03-10T10:25:48.954Z,15.53
2018-03-10T10:28:16.329Z,15.52
2018-03-10T10:30:43.723Z,15.55
2018-03-10T10:33:11.117Z,15.37
2018-03-10T10:35:38.513Z,15.35
2018-03-10T10:38:06.918Z,15.52
2018-03-10T10:40:34.302Z,15.54
2018-03-10T10:43:01.718Z,15.67
2018-03-10T10:45:29.101Z,15.74
2018-03-10T10:47:56.495Z,15.99
2018-03-10T10:50:23.886Z,16.21
2018-03-10T10:52:51.302Z,16.28
2018-03-10T10:55:18.695Z,16.33
2018-03-10T10:57:46.073Z,16.40
2018-03-10T11:03:13.993Z,16.40
2018-03-10T11:05:41.385Z,16.54
2018-03-10T11:08:09.741Z,16.64
2018-03-10T11:10:37.129Z,16.78
2018-03-10T11:13:04.521Z,16.81
2018-03-10T11:15:31.917Z,16.77
2018-03-10T11:17:59.309Z,16.74
2018-03-10T11:20:26.706Z,16.83
2018-03-10T11:22:54.094Z,16.88
2018-03-10T11:25:21.485Z,16.83
2018-03-10T11:27:48.885Z,16.96
2018-03-10T11:30:16.281Z,16.78
2018-03-10T11:32:44.586Z,16.94
2018-03-10T11:35:12.013Z,16.90
2018-03-10T11:37:39.466Z,16.61
2018-03-10T11:40:06.838Z,16.60
2018-03-10T11:42:34.217Z,16.62
2018-03-10T11:45:01.619Z,16.70
2018-03-10T11:47:29.013Z,16.58
2018-03-10T11:49:56.421Z,16.57
2018-03-10T11:52:23.865Z,16.62
2018-03-10T11:54:51.249Z,16.72
2018-03-10T11:57:18.706Z,16.61
2018-03-10T11:59:46.138Z,16.68
2018-03-10T12:02:13.583Z,16.66
2018-03-10T12:04:40.974Z,16.74
2018-03-10T12:07:08.382Z,16.87
2018-03-10T12:09:35.781Z,16.89
2018-03-10T12:12:03.163Z,16.95
2018-03-10T12:14:30.643Z,17.14
2018-03-10T12:16:58.034Z,17.30
2018-03-10T12:19:25.417Z,17.52
2018-03-10T12:21:52.813Z,17.50
2018-03-10T12:24:20.206Z,17.62
2018-03-10T12:26:47.602Z,17.79
2018-03-10T12:29:14.982Z,17.76
2018-03-10T12:31:42.386Z,17.58
2018-03-10T12:34:09.773Z,17.46
2018-03-10T12:36:37.161Z,17.51
2018-03-10T12:39:04.566Z,17.52
2018-03-10T12:41:31.950Z,17.52
2018-03-10T12:43:59.351Z,17.54
2018-03-10T12:46:26.742Z,17.75
2018-03-10T12:48:54.138Z,17.77
2018-03-10T12:51:21.545Z,17.94
2018-03-10T12:53:48.939Z,17.94
2018-03-10T12:56:16.334Z,18.02
2018-03-10T12:58:43.734Z,18.07
2018-03-10T13:01:11.130Z,18.05
2018-03-10T13:03:38.526Z,18.15
2018-03-10T13:06:05.996Z,18.15
2018-03-10T13:08:33.402Z,17.98
2018-03-10T13:11:00.805Z,17.96
2018-03-10T13:13:28.217Z,17.85
2018-03-10T13:15:55.601Z,17.88
2018-03-10T13:18:22.993Z,17.89
2018-03-10T13:20:50.640Z,17.83
2018-03-10T13:23:18.029Z,17.71
2018-03-10T13:25:45.431Z,17.64
2018-03-10T13:28:12.835Z,17.41
2018-03-10T13:30:40.226Z,17.37
2018-03-10T13:33:07.969Z,17.39
2018-03-10T13:35:35.369Z,17.25
2018-03-10T13:38:02.849Z,17.24
2018-03-10T13:40:30.401Z,17.07
2018-03-10T13:42:57.654Z,17.05
2018-03-10T13:45:25.149Z,16.95
2018-03-10T13:47:52.542Z,16.77
2018-03-10T13:50:19.937Z,16.73
2018-03-10T13:52:47.906Z,16.78
2018-03-10T13:55:15.306Z,16.87
2018-03-10T13:57:42.705Z,16.80
2018-03-10T14:00:11.032Z,16.71
2018-03-10T14:02:50.173Z,16.66
2018-03-10T14:05:17.561Z,16.72
2018-03-10T14:07:44.966Z,16.47
2018-03-10T14:10:12.340Z,16.32
2018-03-10T14:12:39.741Z,16.37
2018-03-10T14:15:07.130Z,16.48
2018-03-10T14:17:34.521Z,16.56
2018-03-10T14:20:01.922Z,16.61
2018-03-10T14:22:30.986Z,16.68
2018-03-10T14:24:58.387Z,16.73
2018-03-10T14:27:27.349Z,16.81
2018-03-10T14:29:54.757Z,16.86
2018-03-10T14:32:22.153Z,16.90
2018-03-10T14:34:49.545Z,16.99
2018-03-10T14:37:16.946Z,16.93
2018-03-10T14:39:44.718Z,16.75
2018-03-10T14:42:12.175Z,16.66
2018-03-10T14:44:39.570Z,16.80
2018-03-10T14:47:07.673Z,16.70
2018-03-10T14:49:35.084Z,16.81
2018-03-10T14:52:02.469Z,16.67
2018-03-10T14:54:29.864Z,16.60
2018-03-10T14:56:57.273Z,16.65
2018-03-10T14:59:24.669Z,16.60
2018-03-10T15:01:52.090Z,16.68
2018-03-10T15:07:15.665Z,16.56
2018-03-10T15:09:43.083Z,16.34
2018-03-10T15:12:10.469Z,16.15
2018-03-10T15:14:37.901Z,16.04
2018-03-10T15:17:05.290Z,16.05
2018-03-10T15:19:32.699Z,15.95
2018-03-10T15:22:00.090Z,15.88
2018-03-10T15:24:27.490Z,15.89
2018-03-10T15:26:54.870Z,15.88
2018-03-10T15:29:22.265Z,15.92
2018-03-10T15:31:49.657Z,15.65
2018-03-10T15:34:17.051Z,15.66
2018-03-10T15:36:44.446Z,15.68
2018-03-10T15:39:11.832Z,15.68
2018-03-10T15:41:39.232Z,15.73
2018-03-10T15:44:06.622Z,15.55
2018-03-10T15:46:34.023Z,15.51
2018-03-10T15:49:01.406Z,15.49
2018-03-10T15:51:28.798Z,15.48
2018-03-10T15:53:56.193Z,15.53
2018-03-10T15:56:23.587Z,15.51
2018-03-10T15:58:50.977Z,15.49
2018-03-10T16:01:18.365Z,15.33
2018-03-10T16:03:45.754Z,15.29
2018-03-10T16:06:13.178Z,15.27
2018-03-10T16:08:40.564Z,15.19
2018-03-10T16:11:07.952Z,15.16
2018-03-10T16:13:35.344Z,15.09
2018-03-10T16:16:02.748Z,15.03
2018-03-10T16:18:30.172Z,14.95
2018-03-10T16:20:57.521Z,14.85
2018-03-10T16:23:24.921Z,14.88
2018-03-10T16:25:52.363Z,14.86
2018-03-10T16:28:19.731Z,14.90
2018-03-10T16:30:47.122Z,14.98
2018-03-10T16:33:14.515Z,14.99
2018-03-10T16:35:41.898Z,14.94
2018-03-10T16:38:09.293Z,14.89
2018-03-10T16:40:36.685Z,14.89
2018-03-10T16:43:04.081Z,14.78
2018-03-10T16:45:31.478Z,14.71
2018-03-10T16:47:58.886Z,14.65
2018-03-10T16:50:26.286Z,14.63
2018-03-10T16:52:53.689Z,14.61
2018-03-10T16:55:21.082Z,14.64
2018-03-10T16:57:48.478Z,14.45
2018-03-10T17:00:15.879Z,14.36
2018-03-10T17:02:43.265Z,14.27
2018-03-10T17:05:10.661Z,14.30
2018-03-10T17:07:38.059Z,14.25
2018-03-10T17:10:05.461Z,14.28
2018-03-10T17:12:32.848Z,14.29
2018-03-10T17:15:00.297Z,14.27
2018-03-10T17:17:27.748Z,14.20
2018-03-10T17:19:55.141Z,14.25
2018-03-10T17:22:22.542Z,14.14
2018-03-10T17:24:49.921Z,14.08
2018-03-10T17:27:17.312Z,14.01
2018-03-10T17:29:45.780Z,14.00
2018-03-10T17:32:14.241Z,13.97
2018-03-10T17:34:42.501Z,14.03
2018-03-10T17:37:10.445Z,14.01
2018-03-10T17:39:40.287Z,13.98
2018-03-10T17:42:10.030Z,13.98
2018-03-10T17:44:38.133Z,13.96
2018-03-10T17:47:07.058Z,13.83
2018-03-10T17:49:35.818Z,13.77
2018-03-10T17:52:03.274Z,13.82
2018-03-10T17:54:30.739Z,13.82
2018-03-10T17:56:58.250Z,13.74
2018-03-10T17:59:25.678Z,13.70
2018-03-10T18:01:53.115Z,13.58
2018-03-10T18:04:20.645Z,13.60
2018-03-10T18:06:48.129Z,13.58
2018-03-10T18:09:15.562Z,13.57
2018-03-10T18:11:44.823Z,13.51
2018-03-10T18:14:12.241Z,13.51
2018-03-10T18:16:39.646Z,13.56
2018-03-10T18:19:07.089Z,13.48
2018-03-10T18:21:34.980Z,13.51
2018-03-10T18:24:03.386Z,13.44
2018-03-10T18:26:31.057Z,13.46
2018-03-10T18:28:58.961Z,13.30
2018-03-10T18:31:26.386Z,13.33
2018-03-10T18:33:53.781Z,13.32
2018-03-10T18:36:21.176Z,13.31
2018-03-10T18:38:48.566Z,13.28
2018-03-10T18:41:15.959Z,13.31
2018-03-10T18:43:43.356Z,13.32
2018-03-10T18:46:10.753Z,13.30
2018-03-10T18:48:38.167Z,13.32
2018-03-10T18:51:05.558Z,13.23
2018-03-10T18:53:32.956Z,13.15
2018-03-10T18:56:00.365Z,13.16
2018-03-10T18:58:27.858Z,13.12
2018-03-10T19:00:55.186Z,13.12
2018-03-10T19:03:22.585Z,13.20
2018-03-10T19:05:49.995Z,13.17
2018-03-10T19:08:17.482Z,13.21
2018-03-10T19:10:44.849Z,13.16
2018-03-10T19:13:12.256Z,13.22
2018-03-10T19:15:39.662Z,13.24
2018-03-10T19:18:07.053Z,13.27
2018-03-10T19:20:34.457Z,13.31
2018-03-10T19:23:01.842Z,13.27
2018-03-10T19:25:29.243Z,13.21
2018-03-10T19:27:56.662Z,13.26
2018-03-10T19:30:24.070Z,13.25
2018-03-10T19:32:51.463Z,13.20
2018-03-10T19:35:18.897Z,13.22
2018-03-10T19:37:46.282Z,13.22
2018-03-10T19:40:13.690Z,13.23
2018-03-10T19:42:41.078Z,13.21
2018-03-10T19:45:08.475Z,13.20
2018-03-10T19:47:35.884Z,13.19
2018-03-10T19:50:03.287Z,13.22
2018-03-10T19:52:30.689Z,13.21
2018-03-10T19:54:58.119Z,13.14
2018-03-10T19:57:26.197Z,13.25
2018-03-10T19:59:53.605Z,13.21
2018-03-10T20:02:21.010Z,13.24
2018-03-10T20:04:48.466Z,13.27
2018-03-10T20:07:15.862Z,13.29
2018-03-10T20:09:43.270Z,13.33
2018-03-10T20:12:10.662Z,13.25
2018-03-10T20:14:38.373Z,13.25
2018-03-10T20:17:05.777Z,13.22
2018-03-10T20:19:33.160Z,13.23
2018-03-10T20:22:00.565Z,13.21
2018-03-10T20:24:27.956Z,13.20
2018-03-10T20:26:55.349Z,13.27
2018-03-10T20:29:22.746Z,13.28
2018-03-10T20:31:50.161Z,13.24
2018-03-10T20:34:17.558Z,13.28
2018-03-10T20:36:44.951Z,13.21
2018-03-10T20:39:12.353Z,13.27
2018-03-10T20:41:39.752Z,13.31
2018-03-10T20:44:07.138Z,13.27
2018-03-10T20:46:34.573Z,13.27
2018-03-10T20:49:01.973Z,13.21
2018-03-10T20:51:29.365Z,13.23
2018-03-10T20:53:56.757Z,13.25
2018-03-10T20:56:24.163Z,13.28
2018-03-10T20:58:51.566Z,13.13
2018-03-10T21:01:18.954Z,13.21
2018-03-10T21:03:46.370Z,13.19
2018-03-10T21:06:13.789Z,13.20
2018-03-10T21:08:41.150Z,13.19
2018-03-10T21:11:08.554Z,13.12
2018-03-10T21:13:35.994Z,13.16
2018-03-10T21:16:03.399Z,13.21
2018-03-10T21:18:30.790Z,13.29
2018-03-10T21:20:58.287Z,13.21
2018-03-10T21:23:25.632Z,13.17
2018-03-10T21:25:53.049Z,13.18
2018-03-10T21:28:20.357Z,13.28
2018-03-10T21:30:47.785Z,13.33
2018-03-10T21:33:15.178Z,13.28
2018-03-10T21:35:42.578Z,13.34
2018-03-10T21:38:09.975Z,13.29
2018-03-10T21:40:37.389Z,13.32
2018-03-10T21:43:04.780Z,13.33
2018-03-10T21:45:32.178Z,13.34
2018-03-10T21:47:59.560Z,13.31
2018-03-10T21:50:26.953Z,13.32
2018-03-10T21:52:54.349Z,13.37
2018-03-10T21:55:21.815Z,13.31
2018-03-10T21:57:49.217Z,13.30
2018-03-10T22:00:16.567Z,13.43
2018-03-10T22:02:43.926Z,13.32
2018-03-10T22:05:11.314Z,13.32
2018-03-10T22:07:38.717Z,13.21
2018-03-10T22:10:06.256Z,13.28
2018-03-10T22:12:33.507Z,13.31
2018-03-10T22:15:00.916Z,13.34
2018-03-10T22:17:28.330Z,13.27
2018-03-10T22:19:55.701Z,13.30
2018-03-10T22:22:23.099Z,13.34
2018-03-10T22:24:50.497Z,13.35
2018-03-10T22:27:17.959Z,13.33
2018-03-10T22:29:45.393Z,13.23
2018-03-10T22:32:12.778Z,13.28
2018-03-10T22:34:40.084Z,13.25
2018-03-10T22:37:07.474Z,13.37
2018-03-10T22:39:34.879Z,13.32
2018-03-10T22:42:02.269Z,13.32
2018-03-10T22:44:29.666Z,13.29
2018-03-10T22:46:57.058Z,13.36
2018-03-10T22:49:24.450Z,13.35
2018-03-10T22:51:51.841Z,13.36
2018-03-10T22:54:19.238Z,13.39
2018-03-10T22:56:46.630Z,13.35
2018-03-10T22:59:14.038Z,13.36
2018-03-10T23:01:41.430Z,13.35
2018-03-10T23:04:08.829Z,13.37
2018-03-10T23:06:36.217Z,13.39
2018-03-10T23:09:03.633Z,13.29
2018-03-10T23:11:31.033Z,13.33
2018-03-10T23:13:58.449Z,13.35
2018-03-10T23:16:25.856Z,13.22
2018-03-10T23:18:53.237Z,13.28
2018-03-10T23:21:20.633Z,13.26
2018-03-10T23:23:48.051Z,13.26
2018-03-10T23:26:15.463Z,13.18
2018-03-10T23:28:42.850Z,13.25
2018-03-10T23:31:10.263Z,13.26
2018-03-10T23:33:37.657Z,13.20
2018-03-10T23:36:05.071Z,13.30
2018-03-10T23:38:32.457Z,13.20
2018-03-10T23:40:59.847Z,13.28
2018-03-10T23:43:27.241Z,13.25
2018-03-10T23:45:54.634Z,13.23
2018-03-10T23:48:22.034Z,13.24
2018-03-10T23:50:49.441Z,13.25
2018-03-10T23:53:16.830Z,13.22
2018-03-10T23:55:44.236Z,13.22
2018-03-10T23:58:11.631Z,13.27
